Time;durP1;ratioP1;P1;durP2;ratioP2;P2;SDS_P1;SDS_P2;PMS_P1;PMS_P2;Temp;Humidity;BMP_temperature;BMP_pressure;BME280_temperature;BME280_humidity;BME280_pressure;Samples;Min_cycle;Max_cycle;Signal;HPM_P1;HPM_P2
2023/08/30 00:01:08;;;;;;;6.22;2.50;;;;;;;12.67;100.00;100178.19;5027927;28;20413;-86
2023/08/30 00:03:36;;;;;;;4.05;2.40;;;;;;;12.69;100.00;100178.66;5023862;28;20420;-86
2023/08/30 00:06:05;;;;;;;5.53;2.58;;;;;;;12.68;100.00;100183.31;5025223;28;20423;-86
2023/08/30 00:08:33;;;;;;;3.97;2.30;;;;;;;12.66;100.00;100182.00;5022149;28;20422;-85
2023/08/30 00:11:06;;;;;;;6.30;2.42;;;;;;;12.61;100.00;100176.66;5026204;28;20431;-86
2023/08/30 00:13:42;;;;;;;9.18;2.42;;;;;;;12.62;100.00;100176.34;5030392;28;20425;-87
2023/08/30 00:16:16;;;;;;;5.72;2.30;;;;;;;12.62;100.00;100175.56;5039214;28;20905;-86
2023/08/30 00:18:49;;;;;;;7.07;2.40;;;;;;;12.61;100.00;100184.84;5038406;28;20422;-86
2023/08/30 00:21:18;;;;;;;3.72;2.20;;;;;;;12.58;100.00;100186.25;5018886;28;20892;-85
2023/08/30 00:23:51;;;;;;;6.43;2.42;;;;;;;12.54;100.00;100180.63;5026856;28;20466;-86
2023/08/30 00:26:24;;;;;;;4.07;2.20;;;;;;;12.53;100.00;100189.13;5027210;28;20430;-86
2023/08/30 00:28:59;;;;;;;6.13;2.40;;;;;;;12.46;100.00;100186.78;5029009;28;20497;-84
2023/08/30 00:31:27;;;;;;;3.55;2.20;;;;;;;12.43;100.00;100187.41;5030174;28;20438;-85
2023/08/30 00:34:00;;;;;;;5.63;2.50;;;;;;;12.41;100.00;100195.91;5035201;28;20427;-86
2023/08/30 00:36:28;;;;;;;5.10;2.50;;;;;;;12.38;100.00;100190.22;5023832;28;20523;-86
2023/08/30 00:38:56;;;;;;;4.57;2.30;;;;;;;12.34;100.00;100187.28;5034950;28;20427;-85
2023/08/30 00:41:25;;;;;;;3.33;2.20;;;;;;;12.32;100.00;100183.25;5024150;28;21070;-85
2023/08/30 00:43:59;;;;;;;3.80;2.30;;;;;;;12.30;100.00;100188.22;5026513;28;20425;-86
2023/08/30 00:46:28;;;;;;;4.35;2.30;;;;;;;12.24;100.00;100184.78;5025447;28;20431;-86
2023/08/30 00:49:02;;;;;;;5.97;2.38;;;;;;;12.22;100.00;100184.25;5019684;28;20432;-86
2023/08/30 00:51:35;;;;;;;4.53;2.45;;;;;;;12.20;100.00;100175.59;5025291;28;20444;-85
2023/08/30 00:54:08;;;;;;;3.88;2.00;;;;;;;12.14;100.00;100183.06;5033311;28;20432;-85
2023/08/30 00:56:42;;;;;;;4.47;2.30;;;;;;;12.10;100.00;100183.94;5027138;28;20437;-85
2023/08/30 00:59:16;;;;;;;5.00;2.13;;;;;;;12.11;100.00;100180.13;5025405;28;20419;-86
2023/08/30 01:01:50;;;;;;;4.82;2.35;;;;;;;12.14;100.00;100184.97;5023716;28;20434;-86
2023/08/30 01:04:23;;;;;;;5.63;2.40;;;;;;;12.12;100.00;100177.09;5026529;28;20415;-85
2023/08/30 01:06:52;;;;;;;6.43;2.88;;;;;;;12.08;100.00;100179.63;5024320;28;20419;-85
2023/08/30 01:09:26;;;;;;;5.57;2.70;;;;;;;12.04;100.00;100170.44;5039745;28;20435;-86
2023/08/30 01:12:05;;;;;;;8.13;3.07;;;;;;;11.98;100.00;100166.16;5021970;28;20426;-85
2023/08/30 01:14:46;;;;;;;6.13;3.00;;;;;;;11.93;100.00;100162.69;5021709;28;20424;-86
2023/08/30 01:17:20;;;;;;;8.27;3.22;;;;;;;11.91;100.00;100160.28;5022841;28;20431;-84
2023/08/30 01:19:59;;;;;;;6.93;3.10;;;;;;;11.90;100.00;100156.75;5020332;28;20453;-86
2023/08/30 01:22:39;;;;;;;6.05;3.33;;;;;;;11.90;100.00;100158.66;5025366;28;20426;-85
2023/08/30 01:25:33;;;;;;;6.32;3.10;;;;;;;11.89;100.00;100149.69;5039320;28;20787;-86
2023/08/30 01:28:06;;;;;;;6.38;3.00;;;;;;;11.90;100.00;100150.47;5021182;28;20805;-85
2023/08/30 01:30:42;;;;;;;5.80;2.92;;;;;;;11.85;100.00;100139.69;5017539;28;20435;-85
2023/08/30 01:33:18;;;;;;;8.70;3.45;;;;;;;11.76;100.00;100138.75;5022953;28;20438;-85
2023/08/30 01:35:54;;;;;;;7.78;3.20;;;;;;;11.73;100.00;100142.91;5026192;28;20901;-86
2023/08/30 01:38:24;;;;;;;6.88;3.28;;;;;;;11.67;100.00;100138.63;5024284;28;20440;-86
2023/08/30 01:41:00;;;;;;;6.57;3.20;;;;;;;11.60;100.00;100138.22;5039837;28;20772;-86
2023/08/30 01:43:35;;;;;;;5.17;3.00;;;;;;;11.59;100.00;100134.69;5018247;28;20493;-86
2023/08/30 01:46:10;;;;;;;5.80;2.88;;;;;;;11.60;100.00;100139.03;5024069;28;20447;-85
2023/08/30 01:48:47;;;;;;;5.53;2.83;;;;;;;11.53;100.00;100141.31;5021442;28;20925;-85
2023/08/30 01:51:20;;;;;;;6.25;3.00;;;;;;;11.47;100.00;100142.53;5023715;28;20430;-85
2023/08/30 01:53:50;;;;;;;5.43;2.90;;;;;;;11.45;100.00;100142.84;5021744;28;20783;-85
2023/08/30 01:56:18;;;;;;;6.45;3.13;;;;;;;11.48;100.00;100144.97;5025309;28;20425;-85
2023/08/30 01:58:48;;;;;;;5.80;2.80;;;;;;;11.49;100.00;100140.31;5019495;28;20424;-85
2023/08/30 02:01:21;;;;;;;7.10;2.93;;;;;;;11.48;100.00;100134.06;5022435;28;20434;-85
2023/08/30 02:03:49;;;;;;;6.53;2.90;;;;;;;11.40;100.00;100134.75;5022825;28;20909;-86
2023/08/30 02:06:27;;;;;;;5.87;2.70;;;;;;;11.38;100.00;100126.06;5041537;28;20426;-85
2023/08/30 02:09:00;;;;;;;6.25;2.80;;;;;;;11.37;100.00;100132.63;5027566;28;20421;-85
2023/08/30 02:11:37;;;;;;;4.65;2.67;;;;;;;11.36;100.00;100128.28;5023213;28;20438;-84
2023/08/30 02:14:17;;;;;;;6.88;2.70;;;;;;;11.38;100.00;100129.59;5038699;28;20952;-85
2023/08/30 02:16:51;;;;;;;5.78;2.60;;;;;;;11.39;100.00;100133.94;5019143;28;20424;-84
2023/08/30 02:19:25;;;;;;;4.45;2.60;;;;;;;11.41;100.00;100128.19;5022764;28;20428;-85
2023/08/30 02:21:58;;;;;;;5.18;2.58;;;;;;;11.39;100.00;100120.31;5026646;28;20422;-85
2023/08/30 02:24:31;;;;;;;7.10;3.15;;;;;;;11.43;100.00;100130.63;5021097;28;20420;-85
2023/08/30 02:26:59;;;;;;;6.65;3.22;;;;;;;11.45;100.00;100128.38;5024228;28;20492;-86
2023/08/30 02:29:35;;;;;;;6.47;3.50;;;;;;;11.41;100.00;100122.75;5019468;28;20416;-85
2023/08/30 02:32:08;;;;;;;6.65;3.40;;;;;;;11.42;100.00;100137.16;5039771;28;20472;-85
2023/08/30 02:34:42;;;;;;;6.38;3.28;;;;;;;11.40;100.00;100130.09;5029957;28;20422;-85
2023/08/30 02:37:15;;;;;;;6.78;3.45;;;;;;;11.37;100.00;100129.91;5024000;28;20961;-85
2023/08/30 02:39:44;;;;;;;5.53;3.20;;;;;;;11.30;100.00;100135.72;5039873;28;20439;-85
2023/08/30 02:42:17;;;;;;;5.60;2.90;;;;;;;11.20;100.00;100146.81;5023994;28;20917;-86
2023/08/30 02:44:46;;;;;;;6.72;3.20;;;;;;;11.18;100.00;100146.28;5028648;28;20433;-85
2023/08/30 02:47:19;;;;;;;5.93;3.30;;;;;;;11.17;100.00;100148.22;5022895;28;20418;-86
2023/08/30 02:49:48;;;;;;;6.40;3.40;;;;;;;11.23;100.00;100140.75;5025525;28;20410;-85
2023/08/30 02:52:21;;;;;;;6.70;3.20;;;;;;;11.21;100.00;100135.63;5026340;28;20440;-86
2023/08/30 02:54:54;;;;;;;6.38;3.75;;;;;;;11.23;100.00;100132.59;5023125;28;20411;-84
2023/08/30 02:57:27;;;;;;;7.00;3.83;;;;;;;11.25;100.00;100138.53;5025792;28;20496;-84
2023/08/30 03:00:05;;;;;;;9.60;4.10;;;;;;;11.25;100.00;100140.47;5021504;28;20617;-84
2023/08/30 03:02:33;;;;;;;7.60;4.20;;;;;;;11.19;100.00;100142.47;5023363;28;20785;-85
2023/08/30 03:05:07;;;;;;;7.03;4.00;;;;;;;11.08;100.00;100143.72;5024086;28;20416;-84
2023/08/30 03:07:35;;;;;;;7.68;3.90;;;;;;;11.06;100.00;100141.28;5023520;28;20431;-84
2023/08/30 03:10:10;;;;;;;6.05;3.35;;;;;;;10.94;100.00;100141.75;5041619;28;20911;-85
2023/08/30 03:12:39;;;;;;;6.93;3.40;;;;;;;10.78;100.00;100140.34;5023868;28;20437;-85
2023/08/30 03:15:13;;;;;;;5.95;3.40;;;;;;;10.87;100.00;100133.94;5022273;28;20426;-85
2023/08/30 03:17:46;;;;;;;5.90;3.20;;;;;;;10.79;100.00;100131.88;5026939;28;20431;-84
2023/08/30 03:20:19;;;;;;;6.03;3.13;;;;;;;10.63;100.00;100131.28;5023312;28;20430;-85
2023/08/30 03:22:53;;;;;;;6.65;3.50;;;;;;;10.58;100.00;100134.09;5023401;28;20429;-85
2023/08/30 03:25:29;;;;;;;5.43;3.10;;;;;;;10.60;100.00;100131.09;5023448;28;20428;-85
2023/08/30 03:28:02;;;;;;;6.40;3.40;;;;;;;10.52;100.00;100127.91;5037987;28;20433;-85
2023/08/30 03:30:36;;;;;;;6.67;3.60;;;;;;;10.42;100.00;100127.25;5028504;28;20431;-85
2023/08/30 03:33:05;;;;;;;7.38;3.67;;;;;;;10.40;100.00;100130.25;5022704;28;20422;-85
2023/08/30 03:35:34;;;;;;;7.73;3.70;;;;;;;10.36;100.00;100121.88;5025308;28;20415;-85
2023/08/30 03:38:03;;;;;;;6.70;3.40;;;;;;;10.54;100.00;100120.25;5024036;28;20435;-85
2023/08/30 03:40:36;;;;;;;6.55;3.70;;;;;;;10.63;100.00;100114.16;5033112;28;20434;-85
2023/08/30 03:43:09;;;;;;;6.22;3.70;;;;;;;10.57;100.00;100113.44;5025793;28;20907;-84
2023/08/30 03:45:44;;;;;;;6.22;3.28;;;;;;;10.54;100.00;100116.75;5018581;28;21194;-85
2023/08/30 03:48:19;;;;;;;6.75;3.50;;;;;;;10.53;100.00;100110.47;5019118;28;20417;-85
2023/08/30 03:50:47;;;;;;;6.20;3.40;;;;;;;10.51;100.00;100107.25;5026364;28;20419;-84
2023/08/30 03:53:15;;;;;;;7.95;3.25;;;;;;;10.57;100.00;100107.19;5020945;28;20419;-85
2023/08/30 03:55:48;;;;;;;5.90;3.33;;;;;;;10.59;100.00;100104.97;5024115;28;20438;-84
2023/08/30 03:58:22;;;;;;;5.57;3.35;;;;;;;10.65;100.00;100095.66;5026621;28;20431;-85
2023/08/30 04:00:57;;;;;;;6.82;3.20;;;;;;;10.57;100.00;100096.31;5038545;28;20431;-84
2023/08/30 04:03:30;;;;;;;5.35;3.13;;;;;;;10.51;100.00;100090.94;5021143;28;20423;-84
2023/08/30 04:06:04;;;;;;;6.47;3.38;;;;;;;10.63;100.00;100081.50;5022103;28;20879;-85
2023/08/30 04:08:37;;;;;;;6.63;3.53;;;;;;;10.61;100.00;100086.44;5026175;28;20434;-85
2023/08/30 04:11:11;;;;;;;9.07;3.97;;;;;;;10.68;100.00;100084.97;5022679;28;20439;-85
2023/08/30 04:13:46;;;;;;;8.02;4.00;;;;;;;10.71;100.00;100078.13;5022345;28;20436;-84
2023/08/30 04:16:16;;;;;;;6.88;3.95;;;;;;;10.69;100.00;100077.63;5031007;28;20427;-84
2023/08/30 04:18:49;;;;;;;8.30;4.63;;;;;;;10.72;100.00;100075.09;5027667;28;20799;-84
2023/08/30 04:21:17;;;;;;;10.13;5.63;;;;;;;10.86;100.00;100077.88;5025105;28;20433;-84
2023/08/30 04:23:50;;;;;;;11.38;6.00;;;;;;;10.98;100.00;100072.00;5024400;28;20415;-85
2023/08/30 04:26:18;;;;;;;8.88;5.90;;;;;;;10.97;100.00;100075.00;5028966;28;20431;-84
2023/08/30 04:28:46;;;;;;;10.55;5.40;;;;;;;11.01;100.00;100071.38;5025998;28;20429;-84
2023/08/30 04:31:16;;;;;;;11.33;5.40;;;;;;;11.00;100.00;100074.41;5025287;28;20435;-85
2023/08/30 04:33:49;;;;;;;11.15;5.40;;;;;;;10.94;100.00;100072.84;5023849;28;20457;-84
2023/08/30 04:36:22;;;;;;;9.47;5.03;;;;;;;10.92;100.00;100067.72;5039002;28;20905;-84
2023/08/30 04:38:51;;;;;;;8.27;5.28;;;;;;;10.86;100.00;100068.91;5039855;28;20430;-84
2023/08/30 04:41:19;;;;;;;8.68;5.10;;;;;;;10.84;100.00;100060.22;5024407;28;20435;-84
2023/08/30 04:43:48;;;;;;;10.85;5.20;;;;;;;10.77;100.00;100065.25;5022745;28;20420;-84
2023/08/30 04:46:22;;;;;;;11.10;6.07;;;;;;;10.80;100.00;100068.19;5025837;28;20424;-84
2023/08/30 04:48:50;;;;;;;9.93;6.15;;;;;;;10.90;100.00;100064.50;5018383;28;20412;-84
2023/08/30 04:51:24;;;;;;;12.83;6.53;;;;;;;10.80;100.00;100067.38;5028403;28;20430;-83
2023/08/30 04:53:52;;;;;;;13.07;7.68;;;;;;;10.91;100.00;100059.84;5022630;28;20425;-84
2023/08/30 04:56:25;;;;;;;18.27;8.98;;;;;;;10.97;100.00;100069.56;5035851;28;20451;-83
2023/08/30 04:58:57;;;;;;;18.13;10.40;;;;;;;11.02;100.00;100062.13;5025616;28;20428;-84
2023/08/30 05:01:26;;;;;;;18.77;9.63;;;;;;;10.97;100.00;100064.91;5020265;28;20427;-83
2023/08/30 05:04:01;;;;;;;18.38;10.20;;;;;;;11.05;100.00;100063.44;5025298;28;20427;-85
2023/08/30 05:06:34;;;;;;;21.73;11.13;;;;;;;11.18;100.00;100061.84;5026799;28;20433;-84
2023/08/30 05:09:08;;;;;;;19.15;10.93;;;;;;;11.37;100.00;100057.16;5033531;28;21273;-85
2023/08/30 05:11:41;;;;;;;18.27;10.35;;;;;;;11.57;100.00;100061.41;5023679;28;20427;-85
2023/08/30 05:14:12;;;;;;;21.60;12.07;;;;;;;11.67;100.00;100060.41;5022947;28;20431;-85
2023/08/30 05:16:42;;;;;;;19.67;11.50;;;;;;;11.67;100.00;100051.41;5025667;28;20447;-85
2023/08/30 05:19:16;;;;;;;23.08;12.32;;;;;;;11.72;100.00;100054.03;5032683;28;20423;-85
2023/08/30 05:21:45;;;;;;;21.02;11.73;;;;;;;11.81;100.00;100052.22;5027731;28;20434;-85
2023/08/30 05:24:18;;;;;;;20.25;12.18;;;;;;;11.80;100.00;100058.78;5024901;28;20433;-84
2023/08/30 05:26:52;;;;;;;21.37;11.67;;;;;;;11.92;100.00;100058.28;5019899;28;20430;-85
2023/08/30 05:29:20;;;;;;;20.20;11.30;;;;;;;12.04;100.00;100049.59;5025798;28;20426;-85
2023/08/30 05:31:55;;;;;;;12.27;6.45;;;;;;;12.02;100.00;100060.81;5021492;28;20449;-84
2023/08/30 05:34:46;;;;;;;8.40;4.50;;;;;;;11.82;100.00;100072.13;5012160;28;20428;-84
2023/08/30 05:37:35;;;;;;;7.82;4.38;;;;;;;11.89;100.00;100075.22;5024580;28;20457;-85
2023/08/30 05:40:29;;;;;;;9.77;5.25;;;;;;;11.95;100.00;100067.81;5020579;28;20429;-86
2023/08/30 05:42:57;;;;;;;10.57;5.25;;;;;;;11.98;100.00;100070.72;5022758;28;20916;-90
2023/08/30 05:45:30;;;;;;;9.63;5.50;;;;;;;12.00;100.00;100065.78;5041503;28;21137;-89
2023/08/30 05:48:06;;;;;;;11.52;6.05;;;;;;;12.11;100.00;100066.38;5026276;28;20431;-88
2023/08/30 05:50:35;;;;;;;9.85;5.85;;;;;;;12.22;100.00;100065.06;5025047;28;20430;-86
2023/08/30 05:53:08;;;;;;;12.38;7.45;;;;;;;12.29;100.00;100064.63;5015053;28;20913;-88
2023/08/30 05:55:37;;;;;;;18.90;10.52;;;;;;;12.43;100.00;100059.16;5028940;28;20911;-88
2023/08/30 05:58:06;;;;;;;17.90;10.52;;;;;;;12.61;100.00;100064.75;5018828;28;20438;-87
2023/08/30 06:00:34;;;;;;;18.92;10.50;;;;;;;12.55;100.00;100062.16;5026587;28;20512;-88
2023/08/30 06:03:04;;;;;;;18.40;10.70;;;;;;;12.63;100.00;100059.78;5021804;28;20817;-89
2023/08/30 06:05:34;;;;;;;22.58;11.38;;;;;;;12.71;100.00;100059.84;5025542;28;20427;-87
2023/08/30 06:08:02;;;;;;;16.98;10.00;;;;;;;12.78;100.00;100064.88;5041843;28;20430;-87
2023/08/30 06:10:37;;;;;;;16.65;9.55;;;;;;;12.81;100.00;100061.53;5024005;28;20420;-87
2023/08/30 06:13:05;;;;;;;18.23;10.43;;;;;;;12.83;100.00;100067.50;5019863;28;21184;-88
2023/08/30 06:15:39;;;;;;;17.15;9.60;;;;;;;12.88;100.00;100067.34;5042660;28;20438;-88
2023/08/30 06:18:07;;;;;;;18.60;10.40;;;;;;;13.02;100.00;100055.56;5024684;28;20425;-87
2023/08/30 06:20:41;;;;;;;18.13;9.82;;;;;;;13.10;100.00;100052.91;4972676;28;20446;-86
2023/08/30 06:23:15;;;;;;;16.75;9.90;;;;;;;13.08;100.00;100046.13;4997207;28;20440;-87
2023/08/30 06:25:54;;;;;;;17.10;9.52;;;;;;;13.26;100.00;100047.84;5004415;28;20941;-89
2023/08/30 06:28:23;;;;;;;18.83;10.27;;;;;;;13.34;100.00;100048.19;5002343;28;20433;-87
2023/08/30 06:30:57;;;;;;;17.77;10.32;;;;;;;13.48;100.00;100046.22;5002503;28;20431;-87
2023/08/30 06:33:25;;;;;;;16.70;8.70;;;;;;;13.66;100.00;100049.81;4995968;28;20440;-86
2023/08/30 06:36:00;;;;;;;14.85;8.40;;;;;;;13.80;100.00;100038.78;4995631;28;20427;-87
2023/08/30 06:38:33;;;;;;;13.77;7.95;;;;;;;13.65;100.00;100036.47;4998044;28;20442;-86
2023/08/30 06:41:01;;;;;;;13.05;7.65;;;;;;;13.85;100.00;100029.59;4997089;28;21114;-87
2023/08/30 06:43:34;;;;;;;13.33;7.83;;;;;;;13.83;100.00;100045.53;5002707;28;20435;-86
2023/08/30 06:46:08;;;;;;;11.73;7.18;;;;;;;13.88;100.00;100037.16;4996375;28;21108;-87
2023/08/30 06:48:41;;;;;;;12.15;7.60;;;;;;;13.91;100.00;100033.81;5001076;28;20426;-89
2023/08/30 06:51:10;;;;;;;13.13;7.30;;;;;;;13.94;100.00;100035.91;4999536;28;20458;-87
2023/08/30 06:53:44;;;;;;;12.68;7.07;;;;;;;14.09;100.00;100037.41;5001600;28;20796;-87
2023/08/30 06:56:12;;;;;;;10.55;6.88;;;;;;;14.14;100.00;100034.50;4996137;28;20438;-86
2023/08/30 06:58:40;;;;;;;11.30;7.13;;;;;;;14.26;100.00;100042.06;4997655;28;21302;-85
2023/08/30 07:01:08;;;;;;;10.73;7.00;;;;;;;14.20;100.00;100043.38;5012968;28;21025;-87
2023/08/30 07:03:37;;;;;;;13.20;7.10;;;;;;;14.33;100.00;100044.34;5009966;28;20434;-87
2023/08/30 07:06:05;;;;;;;15.25;7.72;;;;;;;14.35;100.00;100031.94;5011505;28;20421;-87
2023/08/30 07:08:39;;;;;;;10.98;7.22;;;;;;;14.51;100.00;100015.84;5006156;28;20437;-87
2023/08/30 07:11:08;;;;;;;11.45;6.97;;;;;;;14.53;100.00;100018.25;5012380;28;21110;-87
2023/08/30 07:13:41;;;;;;;11.48;7.00;;;;;;;14.65;100.00;100020.38;5022771;28;20447;-87
2023/08/30 07:16:15;;;;;;;12.73;7.60;;;;;;;14.77;100.00;100021.31;5006034;28;20503;-87
2023/08/30 07:18:48;;;;;;;11.32;6.95;;;;;;;14.76;100.00;100025.22;5004576;28;20437;-88
2023/08/30 07:21:21;;;;;;;10.90;6.57;;;;;;;14.76;100.00;100024.38;5005474;28;20916;-88
2023/08/30 07:23:56;;;;;;;12.30;7.13;;;;;;;14.74;100.00;100016.50;4995644;28;20882;-88
2023/08/30 07:26:24;;;;;;;11.48;6.90;;;;;;;14.79;100.00;100030.03;5006143;28;20433;-88
2023/08/30 07:28:57;;;;;;;10.85;7.20;;;;;;;14.83;100.00;100027.47;5005268;28;20957;-89
2023/08/30 07:31:30;;;;;;;11.45;7.28;;;;;;;15.00;100.00;100014.84;5004513;28;20429;-88
2023/08/30 07:34:03;;;;;;;11.23;7.15;;;;;;;14.99;100.00;100013.25;4998234;28;20427;-87
2023/08/30 07:36:36;;;;;;;11.23;7.22;;;;;;;14.91;100.00;100017.59;5000882;28;20433;-87
2023/08/30 07:39:06;;;;;;;13.55;7.50;;;;;;;14.99;100.00;100021.47;5016795;28;20434;-86
2023/08/30 07:41:35;;;;;;;10.07;6.57;;;;;;;15.02;100.00;100018.06;5004440;28;20438;-87
2023/08/30 07:44:03;;;;;;;11.10;7.32;;;;;;;15.11;100.00;100019.66;5006046;28;20452;-87
2023/08/30 07:46:36;;;;;;;11.57;7.65;;;;;;;15.17;100.00;100022.22;5014505;28;21458;-88
2023/08/30 07:49:04;;;;;;;11.55;7.25;;;;;;;15.20;100.00;100024.31;4999470;28;20431;-87
2023/08/30 07:51:38;;;;;;;11.88;7.40;;;;;;;15.23;100.00;100021.72;5010072;28;20441;-87
2023/08/30 07:54:12;;;;;;;10.25;7.20;;;;;;;15.36;100.00;100025.38;5003578;28;20440;-88
2023/08/30 07:56:40;;;;;;;11.18;7.57;;;;;;;15.42;100.00;100026.00;5003920;28;20443;-87
2023/08/30 07:59:09;;;;;;;11.93;8.20;;;;;;;15.37;100.00;100028.91;5014519;28;20439;-88
2023/08/30 08:01:37;;;;;;;12.75;8.25;;;;;;;15.32;100.00;100024.44;4998658;28;21368;-88
2023/08/30 08:04:06;;;;;;;13.07;8.68;;;;;;;15.43;100.00;100025.66;5000552;28;20443;-88
2023/08/30 08:06:34;;;;;;;12.68;8.55;;;;;;;15.48;100.00;100027.44;5001127;28;20431;-88
2023/08/30 08:09:05;;;;;;;12.95;8.75;;;;;;;15.52;100.00;100020.16;5000621;28;20431;-87
2023/08/30 08:11:35;;;;;;;14.70;8.60;;;;;;;15.61;100.00;100029.16;4999233;28;20427;-87
2023/08/30 08:14:08;;;;;;;11.23;7.53;;;;;;;15.72;100.00;100028.78;5007973;28;20769;-87
2023/08/30 08:16:36;;;;;;;12.63;7.70;;;;;;;15.80;100.00;100033.47;4999895;28;20799;-87
2023/08/30 08:19:07;;;;;;;11.93;7.40;;;;;;;15.98;100.00;100043.19;4979533;28;21001;-88
2023/08/30 08:21:35;;;;;;;12.10;7.13;;;;;;;16.00;100.00;100037.38;5018326;28;22157;-87
2023/08/30 08:24:08;;;;;;;11.65;7.40;;;;;;;15.99;100.00;100033.00;4996184;28;20462;-87
2023/08/30 08:26:43;;;;;;;11.23;7.28;;;;;;;15.98;100.00;100032.22;4997382;28;20516;-87
2023/08/30 08:29:11;;;;;;;11.57;7.35;;;;;;;16.03;100.00;100033.94;4997366;28;21253;-86
2023/08/30 08:31:44;;;;;;;13.57;7.60;;;;;;;16.05;100.00;100028.94;4998081;28;20441;-85
2023/08/30 08:34:13;;;;;;;11.70;7.45;;;;;;;16.11;100.00;100035.84;5005009;28;20437;-87
2023/08/30 08:36:46;;;;;;;12.20;6.75;;;;;;;16.24;100.00;100035.91;5003436;28;20436;-87
2023/08/30 08:39:20;;;;;;;9.90;6.60;;;;;;;16.31;100.00;100031.50;4997860;28;20436;-87
2023/08/30 08:41:55;;;;;;;10.82;6.32;;;;;;;16.32;100.00;100035.88;4996133;28;20784;-85
2023/08/30 08:44:27;;;;;;;8.95;5.93;;;;;;;16.41;100.00;100033.03;5006491;28;20436;-87
2023/08/30 08:47:01;;;;;;;9.15;6.38;;;;;;;16.46;100.00;100037.53;4999439;28;20437;-87
2023/08/30 08:49:34;;;;;;;9.68;6.80;;;;;;;16.45;100.00;100041.44;5002317;28;21885;-87
2023/08/30 08:52:07;;;;;;;9.10;6.75;;;;;;;16.53;100.00;100037.00;4998213;28;20438;-87
2023/08/30 08:54:36;;;;;;;9.20;6.57;;;;;;;16.61;100.00;100039.69;4997903;28;20440;-86
2023/08/30 08:57:08;;;;;;;10.83;6.90;;;;;;;16.58;100.00;100034.03;4998540;28;20440;-87
2023/08/30 08:59:36;;;;;;;10.25;6.80;;;;;;;16.64;100.00;100041.75;5005688;28;20455;-87
2023/08/30 09:02:13;;;;;;;10.70;6.97;;;;;;;16.67;100.00;100035.56;4994926;28;20432;-86
2023/08/30 09:04:42;;;;;;;10.73;6.65;;;;;;;16.74;100.00;100035.03;5013770;22;21497;-88
2023/08/30 09:07:11;;;;;;;9.65;6.32;;;;;;;16.87;100.00;100024.09;5007809;28;20411;-87
2023/08/30 09:09:44;;;;;;;11.85;7.00;;;;;;;16.92;100.00;100032.16;5012331;28;20426;-89
2023/08/30 09:12:18;;;;;;;9.05;6.22;;;;;;;17.16;100.00;100031.41;5008641;28;20914;-88
2023/08/30 09:14:55;;;;;;;8.95;5.50;;;;;;;17.10;100.00;100036.31;5007764;28;20800;-87
2023/08/30 09:17:36;;;;;;;9.95;6.53;;;;;;;17.11;100.00;100031.63;5007816;28;20434;-88
2023/08/30 09:20:12;;;;;;;8.30;5.63;;;;;;;17.30;100.00;100034.66;4983664;28;20411;-85
2023/08/30 09:22:41;;;;;;;7.30;5.10;;;;;;;17.50;100.00;100029.41;5013074;28;20780;-88
2023/08/30 09:25:25;;;;;;;11.00;6.18;;;;;;;17.38;100.00;100026.66;5011671;28;20433;-87
2023/08/30 09:28:00;;;;;;;11.18;5.80;;;;;;;17.59;100.00;100021.84;4998219;28;20420;-88
2023/08/30 09:30:29;;;;;;;7.75;5.13;;;;;;;17.72;100.00;100021.84;5014955;28;20431;-87
2023/08/30 09:33:02;;;;;;;9.43;5.22;;;;;;;17.72;100.00;100024.59;5006156;28;20438;-87
2023/08/30 09:35:30;;;;;;;10.73;5.30;;;;;;;18.10;100.00;100017.94;5005954;28;22129;-88
2023/08/30 09:37:58;;;;;;;8.90;5.53;;;;;;;17.88;100.00;100017.25;5019654;28;20431;-86
2023/08/30 09:40:33;;;;;;;9.65;5.70;;;;;;;17.87;100.00;100012.91;5011446;28;20437;-87
2023/08/30 09:43:08;;;;;;;8.55;5.47;;;;;;;17.87;100.00;100007.41;5009699;28;21240;-86
2023/08/30 09:45:42;;;;;;;11.70;5.10;;;;;;;17.87;100.00;100010.16;5006274;28;20438;-87
2023/08/30 09:48:10;;;;;;;6.93;4.40;;;;;;;17.81;100.00;100009.56;5002431;28;21733;-86
2023/08/30 09:50:46;;;;;;;7.18;4.28;;;;;;;17.78;100.00;100010.25;5011276;28;20427;-87
2023/08/30 09:53:18;;;;;;;7.68;4.55;;;;;;;17.76;100.00;100014.50;5007232;28;20435;-86
2023/08/30 09:55:53;;;;;;;7.07;4.50;;;;;;;17.65;100.00;100005.91;5009815;28;20443;-87
2023/08/30 09:58:29;;;;;;;7.82;4.70;;;;;;;17.83;100.00;100007.28;5005157;28;20438;-88
2023/08/30 10:00:57;;;;;;;8.38;4.88;;;;;;;17.87;100.00;100003.81;5002995;28;20431;-89
2023/08/30 10:03:32;;;;;;;7.43;5.07;;;;;;;17.93;100.00;99999.72;5007025;28;20442;-84
2023/08/30 10:06:03;;;;;;;9.75;4.72;;;;;;;17.97;100.00;99997.91;5009424;28;20435;-83
2023/08/30 10:08:32;;;;;;;7.30;5.15;;;;;;;17.94;100.00;99999.38;5002176;28;20431;-85
2023/08/30 10:11:01;;;;;;;8.70;5.20;;;;;;;17.94;100.00;99993.06;5006951;28;20453;-85
2023/08/30 10:13:34;;;;;;;8.17;5.27;;;;;;;17.86;100.00;99997.53;4999313;28;20542;-83
2023/08/30 10:16:05;;;;;;;8.52;4.65;;;;;;;17.96;100.00;99994.31;5004059;28;20426;-85
2023/08/30 10:18:39;;;;;;;8.52;4.93;;;;;;;17.94;100.00;99996.63;5008291;28;21832;-85
2023/08/30 10:21:13;;;;;;;7.38;4.63;;;;;;;18.04;100.00;99989.84;4983875;28;20411;-85
2023/08/30 10:23:49;;;;;;;7.53;4.15;;;;;;;18.25;100.00;99981.41;4999885;28;20431;-84
2023/08/30 10:26:19;;;;;;;8.98;4.78;;;;;;;18.27;100.00;99983.81;5014610;28;20529;-85
2023/08/30 10:28:55;;;;;;;7.15;4.05;;;;;;;18.28;100.00;99985.41;5001073;28;20422;-85
2023/08/30 10:31:29;;;;;;;8.25;4.13;;;;;;;18.29;100.00;99982.31;5002560;28;20942;-84
2023/08/30 10:34:02;;;;;;;9.35;4.60;;;;;;;18.33;100.00;99985.19;5007326;28;21498;-85
2023/08/30 10:36:35;;;;;;;8.07;4.00;;;;;;;18.40;100.00;99982.63;5007348;28;20427;-85
2023/08/30 10:39:12;;;;;;;7.28;4.53;;;;;;;18.39;100.00;99988.50;5015505;28;20442;-85
2023/08/30 10:41:56;;;;;;;7.35;4.55;;;;;;;18.35;100.00;99986.44;5007012;28;21209;-86
2023/08/30 10:44:25;;;;;;;7.65;4.03;;;;;;;18.33;100.00;99994.25;5011048;28;20439;-84
2023/08/30 10:46:55;;;;;;;8.10;4.43;;;;;;;18.42;100.00;99991.34;5003921;28;20512;-85
2023/08/30 10:49:28;;;;;;;7.40;4.10;;;;;;;18.31;100.00;99987.47;5007924;28;20430;-84
2023/08/30 10:51:58;;;;;;;8.40;4.10;;;;;;;18.32;100.00;99989.88;5021635;28;20453;-85
2023/08/30 10:54:38;;;;;;;7.63;4.93;;;;;;;18.35;100.00;99994.72;5004910;28;20474;-85
2023/08/30 10:57:15;;;;;;;9.35;4.65;;;;;;;18.31;100.00;99990.22;5007618;28;20625;-85
2023/08/30 11:00:05;;;;;;;8.68;4.55;;;;;;;18.33;100.00;99987.94;5007227;28;20427;-85
2023/08/30 11:02:38;;;;;;;8.63;5.05;;;;;;;18.45;100.00;99992.59;5007311;28;20432;-84
2023/08/30 11:05:12;;;;;;;9.75;5.18;;;;;;;18.10;100.00;99996.69;5011879;28;20439;-88
2023/08/30 11:07:40;;;;;;;8.70;4.80;;;;;;;18.16;100.00;99989.00;5027912;28;21801;-86
2023/08/30 11:10:09;;;;;;;7.45;4.38;;;;;;;18.25;100.00;99984.16;5012933;28;21205;-88
2023/08/30 11:12:43;;;;;;;9.45;4.95;;;;;;;18.21;100.00;99980.50;5023673;28;20427;-87
2023/08/30 11:15:17;;;;;;;11.52;6.20;;;;;;;18.40;100.00;99984.59;5007039;28;20419;-85
2023/08/30 11:17:51;;;;;;;8.38;4.45;;;;;;;18.57;100.00;99987.03;5017589;28;20446;-89
2023/08/30 11:20:20;;;;;;;8.40;4.75;;;;;;;18.49;100.00;99974.19;4997009;28;20781;-87
2023/08/30 11:22:49;;;;;;;8.35;5.28;;;;;;;18.46;100.00;99984.00;5000769;28;20454;-89
2023/08/30 11:25:22;;;;;;;8.02;5.13;;;;;;;18.33;100.00;99985.97;5010957;28;20446;-87
2023/08/30 11:28:03;;;;;;;10.25;6.03;;;;;;;18.27;100.00;99983.81;5008428;28;20435;-86
2023/08/30 11:30:32;;;;;;;10.65;6.10;;;;;;;18.17;100.00;99977.66;5010050;28;21337;-85
2023/08/30 11:33:01;;;;;;;9.65;6.18;;;;;;;18.13;100.00;99974.00;5010998;28;20434;-87
2023/08/30 11:35:34;;;;;;;10.55;6.22;;;;;;;18.19;100.00;99969.84;5007326;28;20918;-87
2023/08/30 11:38:02;;;;;;;13.60;7.80;;;;;;;18.21;100.00;99971.44;5011507;28;20672;-87